sensor_id;sensor_type;location;lat;lon;timestamp;temperature;humidity
4874;DHT22;2451;49.970;9.068;2023-09-07T00:00:45;16.90;99.90
4874;DHT22;2451;49.970;9.068;2023-09-07T00:03:12;16.90;99.90
4874;DHT22;2451;49.970;9.068;2023-09-07T00:05:38;16.80;99.90
4874;DHT22;2451;49.970;9.068;2023-09-07T00:08:03;16.80;99.90
4874;DHT22;2451;49.970;9.068;2023-09-07T00:10:29;16.80;99.90
4874;DHT22;2451;49.970;9.068;2023-09-07T00:12:54;16.70;99.90
4874;DHT22;2451;49.970;9.068;2023-09-07T00:15:20;16.70;99.90
4874;DHT22;2451;49.970;9.068;2023-09-07T00:17:46;16.70;99.90
4874;DHT22;2451;49.970;9.068;2023-09-07T00:20:12;16.70;99.90
4874;DHT22;2451;49.970;9.068;2023-09-07T00:22:39;16.70;99.90
4874;DHT22;2451;49.970;9.068;2023-09-07T00:25:06;16.60;99.90
4874;DHT22;2451;49.970;9.068;2023-09-07T00:27:34;16.60;99.90
4874;DHT22;2451;49.970;9.068;2023-09-07T00:30:01;16.50;99.90
4874;DHT22;2451;49.970;9.068;2023-09-07T00:32:26;16.50;99.90
4874;DHT22;2451;49.970;9.068;2023-09-07T00:34:52;16.50;99.90
4874;DHT22;2451;49.970;9.068;2023-09-07T00:37:17;16.60;99.90
4874;DHT22;2451;49.970;9.068;2023-09-07T00:39:43;16.60;99.90
4874;DHT22;2451;49.970;9.068;2023-09-07T00:42:08;16.60;99.90
4874;DHT22;2451;49.970;9.068;2023-09-07T00:44:34;16.60;99.90
4874;DHT22;2451;49.970;9.068;2023-09-07T00:46:59;16.70;99.90
4874;DHT22;2451;49.970;9.068;2023-09-07T00:49:25;16.70;99.90
4874;DHT22;2451;49.970;9.068;2023-09-07T00:51:52;16.70;99.90
4874;DHT22;2451;49.970;9.068;2023-09-07T00:54:18;16.70;99.90
4874;DHT22;2451;49.970;9.068;2023-09-07T00:56:44;16.60;99.90
4874;DHT22;2451;49.970;9.068;2023-09-07T00:59:11;16.60;99.90
4874;DHT22;2451;49.970;9.068;2023-09-07T01:01:38;16.50;99.90
4874;DHT22;2451;49.970;9.068;2023-09-07T01:04:04;16.50;99.90
4874;DHT22;2451;49.970;9.068;2023-09-07T01:06:43;16.40;99.90
4874;DHT22;2451;49.970;9.068;2023-09-07T01:09:14;16.40;99.90
4874;DHT22;2451;49.970;9.068;2023-09-07T01:11:40;16.40;99.90
4874;DHT22;2451;49.970;9.068;2023-09-07T01:14:06;16.40;99.90
4874;DHT22;2451;49.970;9.068;2023-09-07T01:16:32;16.40;99.90
4874;DHT22;2451;49.970;9.068;2023-09-07T01:19:00;16.30;99.90
4874;DHT22;2451;49.970;9.068;2023-09-07T01:28:09;16.20;99.90
4874;DHT22;2451;49.970;9.068;2023-09-07T01:30:36;16.20;99.90
4874;DHT22;2451;49.970;9.068;2023-09-07T01:33:04;16.20;99.90
4874;DHT22;2451;49.970;9.068;2023-09-07T01:35:31;16.10;99.90
4874;DHT22;2451;49.970;9.068;2023-09-07T01:37:58;16.10;99.90
4874;DHT22;2451;49.970;9.068;2023-09-07T01:40:24;16.10;99.90
4874;DHT22;2451;49.970;9.068;2023-09-07T01:42:49;16.10;99.90
4874;DHT22;2451;49.970;9.068;2023-09-07T01:45:15;16.00;99.90
4874;DHT22;2451;49.970;9.068;2023-09-07T01:47:40;15.90;99.90
4874;DHT22;2451;49.970;9.068;2023-09-07T01:50:06;15.90;99.90
4874;DHT22;2451;49.970;9.068;2023-09-07T01:52:31;15.80;99.90
4874;DHT22;2451;49.970;9.068;2023-09-07T01:54:57;15.80;99.90
4874;DHT22;2451;49.970;9.068;2023-09-07T01:57:22;15.80;99.90
4874;DHT22;2451;49.970;9.068;2023-09-07T01:59:48;15.80;99.90
4874;DHT22;2451;49.970;9.068;2023-09-07T02:02:14;15.80;99.90
4874;DHT22;2451;49.970;9.068;2023-09-07T02:04:39;15.80;99.90
4874;DHT22;2451;49.970;9.068;2023-09-07T02:07:06;15.80;99.90
4874;DHT22;2451;49.970;9.068;2023-09-07T02:09:31;15.80;99.90
4874;DHT22;2451;49.970;9.068;2023-09-07T02:11:57;15.80;99.90
4874;DHT22;2451;49.970;9.068;2023-09-07T02:14:23;15.80;99.90
4874;DHT22;2451;49.970;9.068;2023-09-07T02:16:48;15.80;99.90
4874;DHT22;2451;49.970;9.068;2023-09-07T02:19:14;15.80;99.90
4874;DHT22;2451;49.970;9.068;2023-09-07T02:21:39;15.80;99.90
4874;DHT22;2451;49.970;9.068;2023-09-07T02:24:05;15.90;99.90
4874;DHT22;2451;49.970;9.068;2023-09-07T02:26:31;15.90;99.90
4874;DHT22;2451;49.970;9.068;2023-09-07T02:28:56;15.90;99.90
4874;DHT22;2451;49.970;9.068;2023-09-07T02:31:22;15.90;99.90
4874;DHT22;2451;49.970;9.068;2023-09-07T02:33:47;15.90;99.90
4874;DHT22;2451;49.970;9.068;2023-09-07T02:36:13;15.90;99.90
4874;DHT22;2451;49.970;9.068;2023-09-07T02:38:38;15.90;99.90
4874;DHT22;2451;49.970;9.068;2023-09-07T02:41:04;15.90;99.90
4874;DHT22;2451;49.970;9.068;2023-09-07T02:43:30;15.90;99.90
4874;DHT22;2451;49.970;9.068;2023-09-07T02:45:56;15.90;99.90
4874;DHT22;2451;49.970;9.068;2023-09-07T02:48:21;15.90;99.90
4874;DHT22;2451;49.970;9.068;2023-09-07T02:50:48;15.90;99.90
4874;DHT22;2451;49.970;9.068;2023-09-07T02:53:15;15.90;99.90
4874;DHT22;2451;49.970;9.068;2023-09-07T02:55:41;15.90;99.90
4874;DHT22;2451;49.970;9.068;2023-09-07T02:58:06;15.90;99.90
4874;DHT22;2451;49.970;9.068;2023-09-07T03:00:32;15.80;99.90
4874;DHT22;2451;49.970;9.068;2023-09-07T03:02:57;15.80;99.90
4874;DHT22;2451;49.970;9.068;2023-09-07T03:05:27;15.80;99.90
4874;DHT22;2451;49.970;9.068;2023-09-07T03:07:53;15.80;99.90
4874;DHT22;2451;49.970;9.068;2023-09-07T03:10:19;15.70;99.90
4874;DHT22;2451;49.970;9.068;2023-09-07T03:12:45;15.70;99.90
4874;DHT22;2451;49.970;9.068;2023-09-07T03:15:10;15.70;99.90
4874;DHT22;2451;49.970;9.068;2023-09-07T03:17:37;15.60;99.90
4874;DHT22;2451;49.970;9.068;2023-09-07T03:20:04;15.60;99.90
4874;DHT22;2451;49.970;9.068;2023-09-07T03:22:40;15.60;99.90
4874;DHT22;2451;49.970;9.068;2023-09-07T03:25:06;15.50;99.90
4874;DHT22;2451;49.970;9.068;2023-09-07T03:27:32;15.50;99.90
4874;DHT22;2451;49.970;9.068;2023-09-07T03:29:57;15.50;99.90
4874;DHT22;2451;49.970;9.068;2023-09-07T03:32:23;15.40;99.90
4874;DHT22;2451;49.970;9.068;2023-09-07T03:34:48;15.40;99.90
4874;DHT22;2451;49.970;9.068;2023-09-07T03:37:14;15.40;99.90
4874;DHT22;2451;49.970;9.068;2023-09-07T03:39:39;15.40;99.90
4874;DHT22;2451;49.970;9.068;2023-09-07T03:42:05;15.40;99.90
4874;DHT22;2451;49.970;9.068;2023-09-07T03:44:31;15.40;99.90
4874;DHT22;2451;49.970;9.068;2023-09-07T03:46:56;15.40;99.90
4874;DHT22;2451;49.970;9.068;2023-09-07T03:49:22;15.40;99.90
4874;DHT22;2451;49.970;9.068;2023-09-07T03:51:47;15.40;99.90
4874;DHT22;2451;49.970;9.068;2023-09-07T03:54:13;15.40;99.90
4874;DHT22;2451;49.970;9.068;2023-09-07T03:56:38;15.40;99.90
4874;DHT22;2451;49.970;9.068;2023-09-07T03:59:04;15.40;99.90
4874;DHT22;2451;49.970;9.068;2023-09-07T04:01:30;15.40;99.90
4874;DHT22;2451;49.970;9.068;2023-09-07T04:03:55;15.30;99.90
4874;DHT22;2451;49.970;9.068;2023-09-07T04:06:21;15.30;99.90
4874;DHT22;2451;49.970;9.068;2023-09-07T04:08:46;15.20;99.90
4874;DHT22;2451;49.970;9.068;2023-09-07T04:11:12;15.20;99.90
4874;DHT22;2451;49.970;9.068;2023-09-07T04:13:37;15.10;99.90
4874;DHT22;2451;49.970;9.068;2023-09-07T04:16:03;15.10;99.90
4874;DHT22;2451;49.970;9.068;2023-09-07T04:18:28;15.10;99.90
4874;DHT22;2451;49.970;9.068;2023-09-07T04:21:05;15.10;99.90
4874;DHT22;2451;49.970;9.068;2023-09-07T04:23:31;15.10;99.90
4874;DHT22;2451;49.970;9.068;2023-09-07T04:26:10;15.10;99.90
4874;DHT22;2451;49.970;9.068;2023-09-07T04:28:37;15.10;99.90
4874;DHT22;2451;49.970;9.068;2023-09-07T04:31:03;15.10;99.90
4874;DHT22;2451;49.970;9.068;2023-09-07T04:33:33;15.20;99.90
4874;DHT22;2451;49.970;9.068;2023-09-07T04:38:34;15.10;99.90
4874;DHT22;2451;49.970;9.068;2023-09-07T04:41:10;15.10;99.90
4874;DHT22;2451;49.970;9.068;2023-09-07T04:43:36;15.10;99.90
4874;DHT22;2451;49.970;9.068;2023-09-07T04:46:02;15.10;99.90
4874;DHT22;2451;49.970;9.068;2023-09-07T04:48:28;15.10;99.90
4874;DHT22;2451;49.970;9.068;2023-09-07T04:51:05;15.00;99.90
4874;DHT22;2451;49.970;9.068;2023-09-07T04:53:32;15.00;99.90
4874;DHT22;2451;49.970;9.068;2023-09-07T04:55:58;15.00;99.90
4874;DHT22;2451;49.970;9.068;2023-09-07T04:58:25;15.00;99.90
4874;DHT22;2451;49.970;9.068;2023-09-07T05:00:51;15.00;99.90
4874;DHT22;2451;49.970;9.068;2023-09-07T05:03:16;14.90;99.90
4874;DHT22;2451;49.970;9.068;2023-09-07T05:05:42;14.90;99.90
4874;DHT22;2451;49.970;9.068;2023-09-07T05:08:09;14.90;99.90
4874;DHT22;2451;49.970;9.068;2023-09-07T05:10:35;14.90;99.90
4874;DHT22;2451;49.970;9.068;2023-09-07T05:13:00;14.90;99.90
4874;DHT22;2451;49.970;9.068;2023-09-07T05:15:26;15.00;99.90
4874;DHT22;2451;49.970;9.068;2023-09-07T05:17:52;15.00;99.90
4874;DHT22;2451;49.970;9.068;2023-09-07T05:20:18;15.10;99.90
4874;DHT22;2451;49.970;9.068;2023-09-07T05:22:43;15.10;99.90
4874;DHT22;2451;49.970;9.068;2023-09-07T05:25:09;15.20;99.90
4874;DHT22;2451;49.970;9.068;2023-09-07T05:27:35;15.30;99.90
4874;DHT22;2451;49.970;9.068;2023-09-07T05:30:02;15.30;99.90
4874;DHT22;2451;49.970;9.068;2023-09-07T05:32:28;15.40;99.90
4874;DHT22;2451;49.970;9.068;2023-09-07T05:34:53;15.50;99.90
4874;DHT22;2451;49.970;9.068;2023-09-07T05:37:19;15.50;99.90
4874;DHT22;2451;49.970;9.068;2023-09-07T05:39:44;15.60;99.90
4874;DHT22;2451;49.970;9.068;2023-09-07T05:42:10;15.70;99.90
4874;DHT22;2451;49.970;9.068;2023-09-07T05:44:35;15.80;99.90
4874;DHT22;2451;49.970;9.068;2023-09-07T05:47:01;15.90;99.90
4874;DHT22;2451;49.970;9.068;2023-09-07T05:49:27;16.00;99.90
4874;DHT22;2451;49.970;9.068;2023-09-07T05:51:53;16.10;99.90
4874;DHT22;2451;49.970;9.068;2023-09-07T05:54:19;16.20;99.90
4874;DHT22;2451;49.970;9.068;2023-09-07T05:56:44;16.30;99.90
4874;DHT22;2451;49.970;9.068;2023-09-07T05:59:10;16.50;99.90
4874;DHT22;2451;49.970;9.068;2023-09-07T06:01:35;16.60;99.90
4874;DHT22;2451;49.970;9.068;2023-09-07T06:04:01;16.70;99.90
4874;DHT22;2451;49.970;9.068;2023-09-07T06:06:27;16.90;99.90
4874;DHT22;2451;49.970;9.068;2023-09-07T06:08:53;17.00;99.90
4874;DHT22;2451;49.970;9.068;2023-09-07T06:11:19;17.20;99.90
4874;DHT22;2451;49.970;9.068;2023-09-07T06:13:44;17.30;99.90
4874;DHT22;2451;49.970;9.068;2023-09-07T06:16:11;17.30;99.90
4874;DHT22;2451;49.970;9.068;2023-09-07T06:18:37;17.50;99.90
4874;DHT22;2451;49.970;9.068;2023-09-07T06:21:02;17.60;99.90
4874;DHT22;2451;49.970;9.068;2023-09-07T06:23:29;17.70;99.90
4874;DHT22;2451;49.970;9.068;2023-09-07T06:25:55;17.70;99.90
4874;DHT22;2451;49.970;9.068;2023-09-07T06:28:21;17.80;99.90
4874;DHT22;2451;49.970;9.068;2023-09-07T06:30:46;17.80;99.90
4874;DHT22;2451;49.970;9.068;2023-09-07T06:33:12;17.90;99.90
4874;DHT22;2451;49.970;9.068;2023-09-07T06:35:37;18.10;99.90
4874;DHT22;2451;49.970;9.068;2023-09-07T06:38:03;18.40;99.90
4874;DHT22;2451;49.970;9.068;2023-09-07T06:40:29;18.70;99.90
4874;DHT22;2451;49.970;9.068;2023-09-07T06:42:55;18.90;99.90
4874;DHT22;2451;49.970;9.068;2023-09-07T06:45:22;19.20;99.90
4874;DHT22;2451;49.970;9.068;2023-09-07T06:47:51;19.40;99.90
4874;DHT22;2451;49.970;9.068;2023-09-07T06:50:17;19.60;99.90
4874;DHT22;2451;49.970;9.068;2023-09-07T06:52:43;19.80;99.90
4874;DHT22;2451;49.970;9.068;2023-09-07T06:55:09;20.00;99.90
4874;DHT22;2451;49.970;9.068;2023-09-07T06:57:34;20.20;99.90
4874;DHT22;2451;49.970;9.068;2023-09-07T07:00:00;20.40;99.90
4874;DHT22;2451;49.970;9.068;2023-09-07T07:02:26;20.40;99.90
4874;DHT22;2451;49.970;9.068;2023-09-07T07:04:52;20.60;99.90
4874;DHT22;2451;49.970;9.068;2023-09-07T07:07:18;20.80;99.90
4874;DHT22;2451;49.970;9.068;2023-09-07T07:09:43;21.00;99.90
4874;DHT22;2451;49.970;9.068;2023-09-07T07:12:09;21.20;99.90
4874;DHT22;2451;49.970;9.068;2023-09-07T07:14:34;21.40;99.90
4874;DHT22;2451;49.970;9.068;2023-09-07T07:17:00;21.60;99.90
4874;DHT22;2451;49.970;9.068;2023-09-07T07:19:28;21.80;99.90
4874;DHT22;2451;49.970;9.068;2023-09-07T07:21:54;22.00;99.90
4874;DHT22;2451;49.970;9.068;2023-09-07T07:24:20;22.20;99.90
4874;DHT22;2451;49.970;9.068;2023-09-07T07:26:46;22.50;99.90
4874;DHT22;2451;49.970;9.068;2023-09-07T07:29:11;22.60;99.90
4874;DHT22;2451;49.970;9.068;2023-09-07T07:31:38;22.80;99.90
4874;DHT22;2451;49.970;9.068;2023-09-07T07:34:04;23.00;99.90
4874;DHT22;2451;49.970;9.068;2023-09-07T07:36:29;23.40;99.90
4874;DHT22;2451;49.970;9.068;2023-09-07T07:38:55;23.60;99.90
4874;DHT22;2451;49.970;9.068;2023-09-07T07:41:20;23.80;99.90
4874;DHT22;2451;49.970;9.068;2023-09-07T07:43:46;23.90;99.90
4874;DHT22;2451;49.970;9.068;2023-09-07T07:46:11;24.00;99.90
4874;DHT22;2451;49.970;9.068;2023-09-07T07:48:41;24.00;99.90
4874;DHT22;2451;49.970;9.068;2023-09-07T07:51:06;23.90;99.90
4874;DHT22;2451;49.970;9.068;2023-09-07T07:53:32;24.00;99.90
4874;DHT22;2451;49.970;9.068;2023-09-07T07:55:57;24.10;99.90
4874;DHT22;2451;49.970;9.068;2023-09-07T07:58:23;24.30;99.90
4874;DHT22;2451;49.970;9.068;2023-09-07T08:00:49;24.40;99.90
4874;DHT22;2451;49.970;9.068;2023-09-07T08:03:15;24.50;99.90
4874;DHT22;2451;49.970;9.068;2023-09-07T08:05:41;24.60;99.90
4874;DHT22;2451;49.970;9.068;2023-09-07T08:08:06;24.80;99.90
4874;DHT22;2451;49.970;9.068;2023-09-07T08:10:35;24.90;99.90
4874;DHT22;2451;49.970;9.068;2023-09-07T08:13:03;25.00;99.90
4874;DHT22;2451;49.970;9.068;2023-09-07T08:15:29;25.00;99.90
4874;DHT22;2451;49.970;9.068;2023-09-07T08:17:55;25.20;99.90
4874;DHT22;2451;49.970;9.068;2023-09-07T08:20:21;25.30;99.90
4874;DHT22;2451;49.970;9.068;2023-09-07T08:22:47;25.10;99.90
4874;DHT22;2451;49.970;9.068;2023-09-07T08:25:13;25.10;99.90
4874;DHT22;2451;49.970;9.068;2023-09-07T08:27:42;25.30;99.90
4874;DHT22;2451;49.970;9.068;2023-09-07T08:30:14;25.40;99.90
4874;DHT22;2451;49.970;9.068;2023-09-07T08:32:44;25.30;99.90
4874;DHT22;2451;49.970;9.068;2023-09-07T08:35:11;25.60;99.90
4874;DHT22;2451;49.970;9.068;2023-09-07T08:37:40;25.80;99.90
4874;DHT22;2451;49.970;9.068;2023-09-07T08:40:06;26.10;99.90
4874;DHT22;2451;49.970;9.068;2023-09-07T08:42:35;26.20;99.90
4874;DHT22;2451;49.970;9.068;2023-09-07T08:45:02;26.30;99.90
4874;DHT22;2451;49.970;9.068;2023-09-07T08:47:33;26.40;99.90
4874;DHT22;2451;49.970;9.068;2023-09-07T08:49:59;26.50;99.90
4874;DHT22;2451;49.970;9.068;2023-09-07T08:52:25;26.50;99.90
4874;DHT22;2451;49.970;9.068;2023-09-07T08:54:50;26.70;99.90
4874;DHT22;2451;49.970;9.068;2023-09-07T08:57:18;26.90;99.90
4874;DHT22;2451;49.970;9.068;2023-09-07T08:59:44;27.00;99.90
4874;DHT22;2451;49.970;9.068;2023-09-07T09:02:10;27.20;99.90
4874;DHT22;2451;49.970;9.068;2023-09-07T09:04:36;27.30;99.90
4874;DHT22;2451;49.970;9.068;2023-09-07T09:07:02;27.30;99.90
4874;DHT22;2451;49.970;9.068;2023-09-07T09:09:29;27.40;99.90
4874;DHT22;2451;49.970;9.068;2023-09-07T09:11:55;27.60;99.90
4874;DHT22;2451;49.970;9.068;2023-09-07T09:14:20;27.70;99.90
4874;DHT22;2451;49.970;9.068;2023-09-07T09:16:51;27.80;99.90
4874;DHT22;2451;49.970;9.068;2023-09-07T09:19:17;28.00;99.30
4874;DHT22;2451;49.970;9.068;2023-09-07T09:21:44;28.10;99.40
4874;DHT22;2451;49.970;9.068;2023-09-07T09:24:11;28.20;98.20
4874;DHT22;2451;49.970;9.068;2023-09-07T09:26:37;28.30;98.10
4874;DHT22;2451;49.970;9.068;2023-09-07T09:29:03;28.40;98.20
4874;DHT22;2451;49.970;9.068;2023-09-07T09:31:30;28.40;97.20
4874;DHT22;2451;49.970;9.068;2023-09-07T09:33:56;28.50;96.80
4874;DHT22;2451;49.970;9.068;2023-09-07T09:36:22;28.60;96.60
4874;DHT22;2451;49.970;9.068;2023-09-07T09:38:49;28.60;96.30
4874;DHT22;2451;49.970;9.068;2023-09-07T09:41:17;28.60;96.50
4874;DHT22;2451;49.970;9.068;2023-09-07T09:43:43;28.70;96.80
4874;DHT22;2451;49.970;9.068;2023-09-07T09:46:12;28.90;95.80
4874;DHT22;2451;49.970;9.068;2023-09-07T09:48:40;29.30;95.70
4874;DHT22;2451;49.970;9.068;2023-09-07T09:51:07;29.60;95.00
4874;DHT22;2451;49.970;9.068;2023-09-07T09:53:33;29.70;93.80
4874;DHT22;2451;49.970;9.068;2023-09-07T09:55:58;29.70;93.70
4874;DHT22;2451;49.970;9.068;2023-09-07T09:58:24;29.50;93.50
4874;DHT22;2451;49.970;9.068;2023-09-07T10:00:52;29.60;93.90
4874;DHT22;2451;49.970;9.068;2023-09-07T10:03:44;29.70;93.80
4874;DHT22;2451;49.970;9.068;2023-09-07T10:06:24;29.70;93.80
4874;DHT22;2451;49.970;9.068;2023-09-07T10:08:57;29.90;93.60
4874;DHT22;2451;49.970;9.068;2023-09-07T10:11:29;30.20;92.30
4874;DHT22;2451;49.970;9.068;2023-09-07T10:13:59;30.40;91.60
4874;DHT22;2451;49.970;9.068;2023-09-07T10:16:25;30.40;91.60
4874;DHT22;2451;49.970;9.068;2023-09-07T10:18:52;30.40;90.90
4874;DHT22;2451;49.970;9.068;2023-09-07T10:21:18;30.40;90.90
4874;DHT22;2451;49.970;9.068;2023-09-07T10:23:45;30.30;90.80
4874;DHT22;2451;49.970;9.068;2023-09-07T10:26:15;30.20;90.90
4874;DHT22;2451;49.970;9.068;2023-09-07T10:28:42;30.40;92.30
4874;DHT22;2451;49.970;9.068;2023-09-07T10:31:19;30.50;90.50
4874;DHT22;2451;49.970;9.068;2023-09-07T10:33:45;30.70;89.80
4874;DHT22;2451;49.970;9.068;2023-09-07T10:36:25;30.60;90.00
4874;DHT22;2451;49.970;9.068;2023-09-07T10:38:51;30.80;89.60
4874;DHT22;2451;49.970;9.068;2023-09-07T10:41:21;30.80;88.90
4874;DHT22;2451;49.970;9.068;2023-09-07T10:43:53;30.70;88.90
4874;DHT22;2451;49.970;9.068;2023-09-07T10:46:22;30.90;90.00
4874;DHT22;2451;49.970;9.068;2023-09-07T10:48:52;30.90;87.20
4874;DHT22;2451;49.970;9.068;2023-09-07T10:51:19;30.90;86.90
4874;DHT22;2451;49.970;9.068;2023-09-07T10:53:45;31.20;86.10
4874;DHT22;2451;49.970;9.068;2023-09-07T10:56:11;31.10;85.60
4874;DHT22;2451;49.970;9.068;2023-09-07T10:58:37;31.20;85.70
4874;DHT22;2451;49.970;9.068;2023-09-07T11:01:08;31.20;85.90
4874;DHT22;2451;49.970;9.068;2023-09-07T11:03:34;31.50;84.10
4874;DHT22;2451;49.970;9.068;2023-09-07T11:06:15;31.50;82.70
4874;DHT22;2451;49.970;9.068;2023-09-07T11:08:41;31.50;84.00
4874;DHT22;2451;49.970;9.068;2023-09-07T11:11:08;31.30;82.50
4874;DHT22;2451;49.970;9.068;2023-09-07T11:13:34;31.30;82.60
4874;DHT22;2451;49.970;9.068;2023-09-07T11:16:00;31.50;83.20
4874;DHT22;2451;49.970;9.068;2023-09-07T11:18:26;31.60;82.80
4874;DHT22;2451;49.970;9.068;2023-09-07T11:20:53;31.60;81.90
4874;DHT22;2451;49.970;9.068;2023-09-07T11:23:19;31.70;80.20
4874;DHT22;2451;49.970;9.068;2023-09-07T11:25:47;31.80;81.10
4874;DHT22;2451;49.970;9.068;2023-09-07T11:28:15;31.70;77.30
4874;DHT22;2451;49.970;9.068;2023-09-07T11:30:51;31.80;78.50
4874;DHT22;2451;49.970;9.068;2023-09-07T11:33:17;32.00;76.70
4874;DHT22;2451;49.970;9.068;2023-09-07T11:35:43;31.90;75.00
4874;DHT22;2451;49.970;9.068;2023-09-07T11:38:13;31.70;74.40
4874;DHT22;2451;49.970;9.068;2023-09-07T11:40:39;31.70;72.60
4874;DHT22;2451;49.970;9.068;2023-09-07T11:43:05;31.50;73.10
4874;DHT22;2451;49.970;9.068;2023-09-07T11:45:31;31.50;73.40
4874;DHT22;2451;49.970;9.068;2023-09-07T11:47:57;31.60;73.20
4874;DHT22;2451;49.970;9.068;2023-09-07T11:50:26;31.60;72.20
4874;DHT22;2451;49.970;9.068;2023-09-07T11:52:53;31.60;73.50
4874;DHT22;2451;49.970;9.068;2023-09-07T11:55:19;31.70;73.60
4874;DHT22;2451;49.970;9.068;2023-09-07T11:57:44;31.70;72.50
4874;DHT22;2451;49.970;9.068;2023-09-07T12:00:10;31.90;71.70
4874;DHT22;2451;49.970;9.068;2023-09-07T12:02:36;31.90;72.00
4874;DHT22;2451;49.970;9.068;2023-09-07T12:05:02;32.00;73.20
4874;DHT22;2451;49.970;9.068;2023-09-07T12:07:29;32.00;73.00
4874;DHT22;2451;49.970;9.068;2023-09-07T12:09:55;32.10;72.80
4874;DHT22;2451;49.970;9.068;2023-09-07T12:12:23;32.30;71.40
4874;DHT22;2451;49.970;9.068;2023-09-07T12:14:48;32.50;71.60
4874;DHT22;2451;49.970;9.068;2023-09-07T12:17:14;32.50;68.70
4874;DHT22;2451;49.970;9.068;2023-09-07T12:19:39;32.60;69.00
4874;DHT22;2451;49.970;9.068;2023-09-07T12:22:07;32.70;66.80
4874;DHT22;2451;49.970;9.068;2023-09-07T12:24:33;32.70;68.40
4874;DHT22;2451;49.970;9.068;2023-09-07T12:26:58;32.30;67.80
4874;DHT22;2451;49.970;9.068;2023-09-07T12:29:25;31.90;69.60
4874;DHT22;2451;49.970;9.068;2023-09-07T12:31:51;31.70;67.50
4874;DHT22;2451;49.970;9.068;2023-09-07T12:34:16;31.60;70.90
4874;DHT22;2451;49.970;9.068;2023-09-07T12:36:42;31.70;71.70
4874;DHT22;2451;49.970;9.068;2023-09-07T12:39:07;32.00;70.80
4874;DHT22;2451;49.970;9.068;2023-09-07T12:41:33;32.00;69.20
4874;DHT22;2451;49.970;9.068;2023-09-07T12:43:58;32.20;68.00
4874;DHT22;2451;49.970;9.068;2023-09-07T12:46:24;32.30;68.10
4874;DHT22;2451;49.970;9.068;2023-09-07T12:48:50;32.10;67.40
4874;DHT22;2451;49.970;9.068;2023-09-07T12:51:15;32.20;68.90
4874;DHT22;2451;49.970;9.068;2023-09-07T12:53:41;32.30;68.00
4874;DHT22;2451;49.970;9.068;2023-09-07T12:56:07;32.50;66.90
4874;DHT22;2451;49.970;9.068;2023-09-07T12:58:32;32.60;67.20
4874;DHT22;2451;49.970;9.068;2023-09-07T13:00:58;32.40;63.10
4874;DHT22;2451;49.970;9.068;2023-09-07T13:03:23;32.40;63.90
4874;DHT22;2451;49.970;9.068;2023-09-07T13:05:49;32.20;62.40
4874;DHT22;2451;49.970;9.068;2023-09-07T13:08:15;32.20;64.70
4874;DHT22;2451;49.970;9.068;2023-09-07T13:10:40;32.40;63.50
4874;DHT22;2451;49.970;9.068;2023-09-07T13:13:06;32.50;63.20
4874;DHT22;2451;49.970;9.068;2023-09-07T13:15:32;32.60;61.90
4874;DHT22;2451;49.970;9.068;2023-09-07T13:17:58;32.30;63.50
4874;DHT22;2451;49.970;9.068;2023-09-07T13:20:24;32.20;62.20
4874;DHT22;2451;49.970;9.068;2023-09-07T13:22:50;32.20;63.10
4874;DHT22;2451;49.970;9.068;2023-09-07T13:25:15;32.00;61.90
4874;DHT22;2451;49.970;9.068;2023-09-07T13:27:41;32.00;62.40
4874;DHT22;2451;49.970;9.068;2023-09-07T13:30:06;32.20;64.70
4874;DHT22;2451;49.970;9.068;2023-09-07T13:32:34;32.40;63.30
4874;DHT22;2451;49.970;9.068;2023-09-07T13:34:59;32.60;63.90
4874;DHT22;2451;49.970;9.068;2023-09-07T13:37:25;32.70;64.30
4874;DHT22;2451;49.970;9.068;2023-09-07T13:39:51;32.70;62.20
4874;DHT22;2451;49.970;9.068;2023-09-07T13:42:16;32.60;63.00
4874;DHT22;2451;49.970;9.068;2023-09-07T13:44:42;32.60;61.70
4874;DHT22;2451;49.970;9.068;2023-09-07T13:47:07;32.60;62.70
4874;DHT22;2451;49.970;9.068;2023-09-07T13:49:34;32.50;61.80
4874;DHT22;2451;49.970;9.068;2023-09-07T13:51:59;32.50;62.80
4874;DHT22;2451;49.970;9.068;2023-09-07T13:54:25;32.50;62.90
4874;DHT22;2451;49.970;9.068;2023-09-07T13:56:50;32.20;61.80
4874;DHT22;2451;49.970;9.068;2023-09-07T13:59:16;32.30;62.80
4874;DHT22;2451;49.970;9.068;2023-09-07T14:01:42;32.30;61.50
4874;DHT22;2451;49.970;9.068;2023-09-07T14:04:07;32.20;62.10
4874;DHT22;2451;49.970;9.068;2023-09-07T14:06:33;32.20;62.70
4874;DHT22;2451;49.970;9.068;2023-09-07T14:08:58;32.10;61.90
4874;DHT22;2451;49.970;9.068;2023-09-07T14:11:24;32.10;64.10
4874;DHT22;2451;49.970;9.068;2023-09-07T14:13:50;32.10;62.70
4874;DHT22;2451;49.970;9.068;2023-09-07T14:16:20;32.00;63.60
4874;DHT22;2451;49.970;9.068;2023-09-07T14:18:46;32.00;62.60
4874;DHT22;2451;49.970;9.068;2023-09-07T14:21:14;32.00;62.50
4874;DHT22;2451;49.970;9.068;2023-09-07T14:23:40;31.90;59.30
4874;DHT22;2451;49.970;9.068;2023-09-07T14:26:05;31.80;59.00
4874;DHT22;2451;49.970;9.068;2023-09-07T14:28:31;31.60;58.40
4874;DHT22;2451;49.970;9.068;2023-09-07T14:30:57;31.60;60.50
4874;DHT22;2451;49.970;9.068;2023-09-07T14:33:24;31.70;61.50
4874;DHT22;2451;49.970;9.068;2023-09-07T14:35:51;31.60;63.00
4874;DHT22;2451;49.970;9.068;2023-09-07T14:38:19;31.60;62.50
4874;DHT22;2451;49.970;9.068;2023-09-07T14:40:45;31.50;63.80
4874;DHT22;2451;49.970;9.068;2023-09-07T14:43:11;31.30;64.20
4874;DHT22;2451;49.970;9.068;2023-09-07T14:45:36;31.30;63.30
4874;DHT22;2451;49.970;9.068;2023-09-07T14:48:02;31.30;63.50
4874;DHT22;2451;49.970;9.068;2023-09-07T14:50:28;31.20;63.70
4874;DHT22;2451;49.970;9.068;2023-09-07T14:52:53;31.30;64.00
4874;DHT22;2451;49.970;9.068;2023-09-07T14:55:19;31.30;63.80
4874;DHT22;2451;49.970;9.068;2023-09-07T14:57:44;31.30;63.60
4874;DHT22;2451;49.970;9.068;2023-09-07T15:00:10;31.20;63.00
4874;DHT22;2451;49.970;9.068;2023-09-07T15:02:36;31.20;62.70
4874;DHT22;2451;49.970;9.068;2023-09-07T15:05:02;31.10;62.50
4874;DHT22;2451;49.970;9.068;2023-09-07T15:07:28;31.00;63.80
4874;DHT22;2451;49.970;9.068;2023-09-07T15:09:53;31.00;63.70
4874;DHT22;2451;49.970;9.068;2023-09-07T15:12:19;30.90;62.30
4874;DHT22;2451;49.970;9.068;2023-09-07T15:14:44;30.90;61.90
4874;DHT22;2451;49.970;9.068;2023-09-07T15:17:10;30.80;60.30
4874;DHT22;2451;49.970;9.068;2023-09-07T15:19:37;30.70;59.50
4874;DHT22;2451;49.970;9.068;2023-09-07T15:22:03;30.50;59.90
4874;DHT22;2451;49.970;9.068;2023-09-07T15:24:28;30.50;60.50
4874;DHT22;2451;49.970;9.068;2023-09-07T15:26:54;30.40;59.50
4874;DHT22;2451;49.970;9.068;2023-09-07T15:29:19;30.40;59.60
4874;DHT22;2451;49.970;9.068;2023-09-07T15:31:45;30.20;58.80
4874;DHT22;2451;49.970;9.068;2023-09-07T15:34:11;30.10;59.00
4874;DHT22;2451;49.970;9.068;2023-09-07T15:36:36;30.10;59.50
4874;DHT22;2451;49.970;9.068;2023-09-07T15:39:02;30.20;59.90
4874;DHT22;2451;49.970;9.068;2023-09-07T15:41:28;30.20;59.60
4874;DHT22;2451;49.970;9.068;2023-09-07T15:43:54;30.10;60.00
4874;DHT22;2451;49.970;9.068;2023-09-07T15:46:20;30.10;59.70
4874;DHT22;2451;49.970;9.068;2023-09-07T15:48:46;29.90;60.00
4874;DHT22;2451;49.970;9.068;2023-09-07T15:51:12;29.90;60.70
4874;DHT22;2451;49.970;9.068;2023-09-07T15:53:38;29.90;61.60
4874;DHT22;2451;49.970;9.068;2023-09-07T15:56:03;29.90;60.70
4874;DHT22;2451;49.970;9.068;2023-09-07T15:58:30;29.80;61.00
4874;DHT22;2451;49.970;9.068;2023-09-07T16:00:57;29.90;62.50
4874;DHT22;2451;49.970;9.068;2023-09-07T16:03:22;29.90;63.40
4874;DHT22;2451;49.970;9.068;2023-09-07T16:05:48;29.90;64.00